Time;durP1;ratioP1;P1;durP2;ratioP2;P2;SDS_P1;SDS_P2;PMS_P1;PMS_P2;Temp;Humidity;BMP_temperature;BMP_pressure;BME280_temperature;BME280_humidity;BME280_pressure;Samples;Min_cycle;Max_cycle;Signal;HPM_P1;HPM_P2
2022/05/13 00:01:51;;;;;;;8.18;2.10;;;11.40;99.90;;;;;;5082717;28;20044;-71
2022/05/13 00:04:17;;;;;;;5.53;2.08;;;11.40;99.90;;;;;;5050592;28;20044;-71
2022/05/13 00:06:43;;;;;;;12.60;2.47;;;11.40;99.90;;;;;;5084838;28;20051;-70
2022/05/13 00:09:08;;;;;;;10.55;1.95;;;11.40;99.90;;;;;;5084244;28;20463;-70
2022/05/13 00:11:34;;;;;;;4.05;2.00;;;11.40;99.90;;;;;;5085224;28;20047;-70
2022/05/13 00:14:00;;;;;;;8.68;2.03;;;11.40;99.90;;;;;;5083432;28;20050;-70
2022/05/13 00:16:26;;;;;;;6.90;2.60;;;11.40;99.90;;;;;;5084910;28;20048;-70
2022/05/13 00:18:52;;;;;;;9.35;1.98;;;11.40;99.90;;;;;;5067556;28;20126;-71
2022/05/13 00:21:18;;;;;;;7.07;2.00;;;11.40;99.90;;;;;;5084773;28;20044;-71
2022/05/13 00:23:44;;;;;;;12.38;2.65;;;11.40;99.90;;;;;;5051007;28;20048;-71
2022/05/13 00:26:10;;;;;;;7.57;2.17;;;11.40;99.90;;;;;;5067159;28;20452;-72
2022/05/13 00:28:35;;;;;;;9.93;1.95;;;11.40;99.90;;;;;;5084458;28;20048;-72
2022/05/13 00:31:04;;;;;;;8.75;2.15;;;11.50;99.90;;;;;;5084175;28;20072;-71
2022/05/13 00:33:31;;;;;;;5.95;2.00;;;11.50;99.90;;;;;;5101614;28;20119;-71
2022/05/13 00:35:57;;;;;;;5.88;1.55;;;11.50;99.90;;;;;;5084283;28;20535;-71
2022/05/13 00:38:23;;;;;;;11.75;2.33;;;11.50;99.90;;;;;;5084145;28;20048;-71
2022/05/13 00:40:49;;;;;;;10.00;2.47;;;11.50;99.90;;;;;;5068099;28;20402;-70
2022/05/13 00:43:53;;;;;;;14.55;2.00;;;11.50;99.90;;;;;;5085498;28;20047;-71
2022/05/13 00:46:20;;;;;;;7.50;1.92;;;11.60;99.90;;;;;;5064230;28;20040;-71
2022/05/13 00:48:47;;;;;;;12.55;2.83;;;11.50;99.90;;;;;;5064299;28;20044;-71
2022/05/13 00:51:18;;;;;;;10.00;2.15;;;11.60;99.90;;;;;;5064228;28;20039;-71
2022/05/13 00:53:45;;;;;;;6.93;2.15;;;11.60;99.90;;;;;;5063914;28;20052;-71
2022/05/13 00:56:12;;;;;;;7.55;1.88;;;11.60;99.90;;;;;;5082646;28;20521;-71
2022/05/13 00:58:41;;;;;;;5.15;1.73;;;11.60;99.90;;;;;;5084099;28;20510;-71
2022/05/13 01:01:07;;;;;;;4.93;1.75;;;11.70;99.90;;;;;;5067183;28;20438;-70
2022/05/13 01:03:36;;;;;;;8.85;1.88;;;11.70;99.90;;;;;;5067624;28;20135;-71
2022/05/13 01:06:06;;;;;;;5.05;1.52;;;11.70;99.90;;;;;;5086961;28;20462;-70
2022/05/13 01:08:32;;;;;;;;;;;11.70;99.90;;;;;;5048915;28;20707;-70
2022/05/13 01:11:01;;;;;;;16.00;3.88;;;11.70;99.90;;;;;;5104809;28;20273;-71
2022/05/13 01:13:29;;;;;;;11.07;2.40;;;11.70;99.90;;;;;;5087659;28;20474;-71
2022/05/13 01:15:55;;;;;;;6.78;1.80;;;11.70;99.90;;;;;;5087429;28;20521;-71
2022/05/13 01:18:34;;;;;;;14.18;2.65;;;11.70;99.90;;;;;;5087286;28;20048;-71
2022/05/13 01:21:02;;;;;;;13.63;2.03;;;11.70;99.90;;;;;;5088258;28;20532;-70
2022/05/13 01:23:34;;;;;;;8.45;1.70;;;11.70;99.90;;;;;;5087378;28;20056;-70
2022/05/13 01:26:09;;;;;;;7.22;1.95;;;11.70;99.90;;;;;;5083239;28;20076;-71
2022/05/13 01:28:42;;;;;;;9.60;1.70;;;11.70;99.90;;;;;;5067104;28;20160;-71
2022/05/13 01:31:11;;;;;;;8.60;2.15;;;11.70;99.90;;;;;;5053522;28;20044;-71
2022/05/13 01:33:38;;;;;;;9.27;2.55;;;11.70;99.90;;;;;;5087318;28;20082;-71
2022/05/13 01:36:06;;;;;;;5.97;1.80;;;11.70;99.90;;;;;;5086748;28;20140;-71
2022/05/13 01:38:36;;;;;;;4.57;1.85;;;11.70;99.90;;;;;;5067177;28;20074;-71
2022/05/13 01:41:02;;;;;;;7.45;1.95;;;11.70;99.90;;;;;;5093685;28;20073;-71
2022/05/13 01:43:28;;;;;;;11.43;1.75;;;11.70;99.90;;;;;;5087093;28;20048;-71
2022/05/13 01:45:54;;;;;;;5.57;1.83;;;11.70;99.90;;;;;;5087097;28;20440;-71
2022/05/13 01:48:20;;;;;;;9.20;2.47;;;11.70;99.90;;;;;;5085713;28;20036;-71
2022/05/13 01:50:46;;;;;;;6.80;1.98;;;11.70;99.90;;;;;;5087185;28;20040;-71
2022/05/13 01:53:13;;;;;;;10.77;2.10;;;11.70;99.90;;;;;;5086325;28;20040;-71
2022/05/13 01:55:42;;;;;;;7.97;2.08;;;11.70;99.90;;;;;;5087428;28;20048;-71
2022/05/13 01:58:10;;;;;;;6.40;1.80;;;11.70;99.90;;;;;;5086671;28;20091;-70
2022/05/13 02:00:37;;;;;;;10.05;2.33;;;11.70;99.90;;;;;;5086255;28;20478;-70
2022/05/13 02:05:47;;;;;;;8.80;2.10;;;11.70;99.90;;;;;;5086727;28;20079;-71
2022/05/13 02:08:13;;;;;;;8.85;2.13;;;11.70;99.90;;;;;;5086777;28;20075;-71
2022/05/13 02:10:38;;;;;;;9.20;2.40;;;11.70;99.90;;;;;;5101727;28;20086;-70
2022/05/13 02:13:04;;;;;;;9.95;2.20;;;11.70;99.90;;;;;;5087009;28;20044;-70
2022/05/13 02:15:30;;;;;;;8.18;2.15;;;11.70;99.90;;;;;;5086147;28;20044;-70
2022/05/13 02:17:56;;;;;;;9.70;1.83;;;11.60;99.90;;;;;;5086761;28;20583;-71
2022/05/13 02:20:21;;;;;;;9.70;2.33;;;11.70;99.90;;;;;;5068889;28;20052;-70
2022/05/13 02:22:47;;;;;;;12.30;2.38;;;11.70;99.90;;;;;;5086018;28;20565;-70
2022/05/13 02:25:13;;;;;;;6.70;1.90;;;11.70;99.90;;;;;;5086473;28;20040;-70
2022/05/13 02:27:39;;;;;;;13.27;2.70;;;11.70;99.90;;;;;;5085787;28;20048;-70
2022/05/13 02:30:06;;;;;;;13.18;2.92;;;11.70;99.90;;;;;;5070015;28;20390;-71
2022/05/13 02:32:31;;;;;;;8.35;2.47;;;11.70;99.90;;;;;;5085059;28;20075;-70
2022/05/13 02:34:57;;;;;;;13.27;2.45;;;11.70;99.90;;;;;;5086764;28;20469;-70
2022/05/13 02:37:23;;;;;;;15.05;2.60;;;11.70;99.90;;;;;;5085818;28;20135;-71
2022/05/13 02:39:49;;;;;;;9.25;2.42;;;11.70;99.90;;;;;;5086200;28;20409;-71
2022/05/13 02:42:15;;;;;;;22.27;2.97;;;11.70;99.90;;;;;;5086307;28;20135;-72
2022/05/13 02:44:41;;;;;;;12.15;2.90;;;11.70;99.90;;;;;;5086029;28;20055;-70
2022/05/13 02:47:07;;;;;;;11.63;2.33;;;11.70;99.90;;;;;;5086047;28;20494;-72
2022/05/13 02:49:32;;;;;;;11.40;2.45;;;11.70;99.90;;;;;;5069056;28;20056;-70
2022/05/13 02:51:58;;;;;;;12.38;2.72;;;11.70;99.90;;;;;;5086305;28;20048;-70
2022/05/13 02:54:24;;;;;;;9.10;2.53;;;11.70;99.90;;;;;;5084755;28;20049;-70
2022/05/13 02:56:49;;;;;;;14.35;3.58;;;11.70;99.90;;;;;;5086513;28;20040;-71
2022/05/13 02:59:15;;;;;;;10.15;2.88;;;11.70;99.90;;;;;;5085631;28;20728;-71
2022/05/13 03:01:41;;;;;;;13.13;2.67;;;11.70;99.90;;;;;;5062992;28;20048;-70
2022/05/13 03:04:06;;;;;;;12.70;2.60;;;11.70;99.90;;;;;;5070127;28;20403;-70
2022/05/13 03:06:32;;;;;;;10.93;2.97;;;11.70;99.90;;;;;;5084987;28;20122;-70
2022/05/13 03:08:58;;;;;;;12.20;2.72;;;11.70;99.90;;;;;;5086145;28;20035;-71
2022/05/13 03:11:24;;;;;;;9.63;2.75;;;11.70;99.90;;;;;;5051572;28;20120;-71
2022/05/13 03:13:51;;;;;;;8.23;2.40;;;11.70;99.90;;;;;;5065065;28;20391;-70
2022/05/13 03:16:21;;;;;;;12.57;3.00;;;11.70;99.90;;;;;;5065345;28;20403;-71
2022/05/13 03:18:54;;;;;;;14.20;2.75;;;11.60;99.90;;;;;;5065684;28;20067;-70
2022/05/13 03:21:21;;;;;;;11.93;3.05;;;11.70;99.90;;;;;;5081486;28;20553;-70
2022/05/13 03:23:47;;;;;;;12.13;3.50;;;11.70;99.90;;;;;;5085776;28;20127;-70
2022/05/13 03:26:15;;;;;;;16.40;3.03;;;11.70;99.90;;;;;;5068623;28;20127;-72
2022/05/13 03:28:41;;;;;;;8.82;2.70;;;11.70;99.90;;;;;;5101473;28;20631;-71
2022/05/13 03:31:07;;;;;;;15.05;3.42;;;11.70;99.90;;;;;;5085685;28;20039;-71
2022/05/13 03:33:33;;;;;;;12.15;2.90;;;11.70;99.90;;;;;;5083473;28;20047;-72
2022/05/13 03:35:59;;;;;;;11.25;3.20;;;11.70;99.90;;;;;;5068496;28;20047;-71
2022/05/13 03:38:24;;;;;;;13.73;3.53;;;11.70;99.90;;;;;;5085131;28;20044;-72
2022/05/13 03:40:50;;;;;;;10.50;2.60;;;11.70;99.90;;;;;;5101481;28;20073;-71
2022/05/13 03:43:17;;;;;;;18.13;2.85;;;11.70;99.90;;;;;;5085263;28;20517;-71
2022/05/13 03:45:43;;;;;;;11.55;2.63;;;11.70;99.90;;;;;;5067533;28;20044;-72
2022/05/13 03:48:09;;;;;;;12.85;2.40;;;11.70;99.90;;;;;;5085454;28;20044;-71
2022/05/13 03:50:37;;;;;;;14.85;3.05;;;11.70;99.90;;;;;;5084356;28;20541;-72
2022/05/13 03:53:03;;;;;;;17.27;3.40;;;11.60;99.90;;;;;;5084936;28;20043;-71
2022/05/13 03:55:30;;;;;;;12.38;2.70;;;11.60;99.90;;;;;;5084885;28;20051;-70
2022/05/13 03:57:55;;;;;;;13.98;2.97;;;11.70;99.90;;;;;;5084672;28;20621;-71
2022/05/13 04:00:22;;;;;;;20.63;4.03;;;11.70;99.90;;;;;;5084768;28;20260;-71
2022/05/13 04:02:48;;;;;;;16.42;3.60;;;11.70;99.90;;;;;;5083544;28;20052;-71
2022/05/13 04:10:43;;;;;;;14.13;3.70;;;11.70;99.90;;;;;;5101431;28;20048;-71
2022/05/13 04:16:06;;;;;;;15.68;3.65;;;11.80;99.90;;;;;;5101865;28;20071;-71
2022/05/13 04:18:40;;;;;;;10.82;3.50;;;11.80;99.90;;;;;;5085133;28;20413;-71
2022/05/13 04:21:10;;;;;;;11.77;3.15;;;11.80;99.90;;;;;;5050818;28;20044;-70
2022/05/13 04:23:40;;;;;;;17.75;3.85;;;11.80;99.90;;;;;;5083918;28;20040;-70
2022/05/13 04:26:06;;;;;;;18.70;4.00;;;11.90;99.90;;;;;;5084329;28;20042;-71
2022/05/13 04:28:32;;;;;;;19.58;3.72;;;11.90;99.90;;;;;;5084209;28;20048;-71
2022/05/13 04:30:58;;;;;;;17.65;3.42;;;11.90;99.90;;;;;;5084565;28;20063;-72
2022/05/13 04:33:25;;;;;;;17.30;4.03;;;11.90;99.90;;;;;;5100786;28;20040;-71
2022/05/13 04:35:51;;;;;;;20.52;4.18;;;11.90;99.90;;;;;;5083423;28;20040;-71
2022/05/13 04:38:17;;;;;;;28.35;3.85;;;11.90;99.90;;;;;;5084338;28;20119;-71
2022/05/13 04:40:42;;;;;;;16.48;3.75;;;11.90;99.90;;;;;;5084208;28;20454;-72
2022/05/13 04:43:08;;;;;;;12.55;3.85;;;11.90;99.90;;;;;;5084442;28;20044;-72
2022/05/13 04:45:34;;;;;;;19.77;3.88;;;11.90;99.90;;;;;;5087729;28;20036;-71
2022/05/13 04:48:17;;;;;;;24.85;3.58;;;12.00;99.90;;;;;;5088605;28;20048;-72
2022/05/13 04:50:52;;;;;;;18.10;3.72;;;11.90;99.90;;;;;;5088030;28;20447;-72
2022/05/13 04:53:23;;;;;;;23.40;3.90;;;12.00;99.90;;;;;;5088692;28;20508;-72
2022/05/13 04:55:50;;;;;;;20.45;3.75;;;12.00;99.90;;;;;;5087245;28;20036;-70
2022/05/13 04:58:16;;;;;;;22.83;3.95;;;12.00;99.90;;;;;;5087930;28;20066;-71
2022/05/13 05:00:43;;;;;;;20.42;3.97;;;12.00;99.90;;;;;;5087826;28;20075;-71
2022/05/13 05:03:09;;;;;;;16.63;3.88;;;12.00;99.90;;;;;;5068128;28;20418;-72
2022/05/13 05:05:34;;;;;;;23.30;3.83;;;12.10;99.90;;;;;;5072997;28;20763;-71
2022/05/13 05:08:01;;;;;;;23.45;3.90;;;12.10;99.90;;;;;;5070627;28;20040;-71
2022/05/13 05:10:28;;;;;;;23.83;4.57;;;12.10;99.90;;;;;;5074862;28;20040;-70
2022/05/13 05:12:56;;;;;;;19.73;3.80;;;12.10;99.90;;;;;;5050556;28;20048;-73
2022/05/13 05:15:23;;;;;;;23.02;4.80;;;12.20;99.90;;;;;;5068051;28;20052;-71
2022/05/13 05:17:49;;;;;;;16.45;3.45;;;12.20;99.90;;;;;;5067109;28;20680;-71
2022/05/13 05:20:15;;;;;;;17.83;3.75;;;12.20;99.90;;;;;;5055852;28;20044;-70
2022/05/13 05:22:44;;;;;;;15.13;3.75;;;12.30;99.90;;;;;;5066726;28;20055;-70
2022/05/13 05:25:09;;;;;;;23.58;4.35;;;12.30;99.90;;;;;;5068315;28;20088;-71
2022/05/13 05:27:36;;;;;;;31.80;4.05;;;12.30;99.90;;;;;;5067354;28;20048;-71
2022/05/13 05:30:06;;;;;;;16.48;3.67;;;12.40;99.90;;;;;;5070822;28;20066;-70
2022/05/13 05:32:32;;;;;;;;;;;12.40;99.90;;;;;;5088027;28;20044;-72
2022/05/13 05:34:57;;;;;;;17.48;3.50;;;12.50;99.90;;;;;;5087325;28;19965;-70
2022/05/13 05:37:23;;;;;;;21.10;3.35;;;12.50;99.90;;;;;;5087240;28;20040;-72
2022/05/13 05:39:49;;;;;;;20.52;3.72;;;12.60;99.90;;;;;;5070100;28;20056;-71
2022/05/13 05:42:14;;;;;;;20.10;3.38;;;12.60;99.90;;;;;;5087066;28;20043;-70
2022/05/13 05:44:40;;;;;;;19.30;4.00;;;12.60;99.90;;;;;;5087405;28;20094;-71
2022/05/13 05:47:06;;;;;;;17.75;3.35;;;12.70;99.90;;;;;;5087105;28;20571;-71
2022/05/13 05:49:32;;;;;;;19.70;3.72;;;12.80;99.90;;;;;;5087371;28;20391;-71
2022/05/13 05:51:58;;;;;;;15.05;3.67;;;12.80;99.90;;;;;;5087418;28;20091;-72
2022/05/13 05:57:14;;;;;;;17.60;3.80;;;13.00;99.90;;;;;;5086967;28;20044;-71
2022/05/13 05:59:40;;;;;;;23.95;3.80;;;13.10;99.90;;;;;;5086174;28;20059;-71
2022/05/13 06:02:07;;;;;;;21.25;3.78;;;13.20;99.90;;;;;;5087141;28;20071;-70
2022/05/13 06:04:36;;;;;;;25.60;3.45;;;13.30;99.90;;;;;;5086465;28;20051;-70
2022/05/13 06:07:04;;;;;;;19.20;3.80;;;13.40;99.90;;;;;;5070028;28;20060;-71
2022/05/13 06:09:30;;;;;;;16.88;3.25;;;13.50;99.90;;;;;;5086517;28;20500;-71
2022/05/13 06:11:57;;;;;;;21.38;3.72;;;13.60;99.90;;;;;;5086783;28;20508;-71
2022/05/13 06:14:22;;;;;;;17.20;3.30;;;13.70;99.90;;;;;;5085343;28;20051;-71
2022/05/13 06:16:48;;;;;;;16.42;3.72;;;13.80;99.90;;;;;;5086239;28;20044;-72
2022/05/13 06:19:15;;;;;;;15.25;3.47;;;13.80;99.90;;;;;;5069769;28;20090;-71
2022/05/13 06:21:40;;;;;;;15.13;3.28;;;13.80;99.90;;;;;;5086075;28;20102;-71
2022/05/13 06:24:07;;;;;;;10.73;2.75;;;13.70;99.90;;;;;;5086344;28;20044;-70
2022/05/13 06:26:32;;;;;;;16.92;4.10;;;13.70;99.90;;;;;;5069430;28;20044;-71
2022/05/13 06:28:59;;;;;;;15.30;2.92;;;13.60;99.90;;;;;;5086476;28;20051;-71
2022/05/13 06:31:25;;;;;;;12.48;3.15;;;13.60;99.90;;;;;;5086334;28;20039;-70
2022/05/13 06:33:51;;;;;;;16.08;3.13;;;13.60;99.90;;;;;;5068651;28;20051;-71
2022/05/13 06:36:17;;;;;;;11.35;3.28;;;13.60;99.90;;;;;;5086401;28;20040;-71
2022/05/13 06:38:43;;;;;;;13.77;2.90;;;13.60;99.90;;;;;;5085514;28;20048;-71
2022/05/13 06:41:09;;;;;;;18.08;3.33;;;13.50;99.90;;;;;;5070012;28;20062;-71
2022/05/13 06:43:35;;;;;;;18.35;3.22;;;13.50;99.90;;;;;;5068559;28;20040;-71
2022/05/13 06:46:01;;;;;;;15.48;3.50;;;13.50;99.90;;;;;;5085443;28;20048;-71
2022/05/13 06:48:27;;;;;;;12.98;3.10;;;13.50;99.90;;;;;;5085544;28;20101;-70
2022/05/13 06:50:53;;;;;;;16.63;3.83;;;13.60;99.90;;;;;;5068499;28;20052;-71
2022/05/13 06:53:20;;;;;;;8.48;2.63;;;13.50;99.90;;;;;;5074592;28;20128;-71
2022/05/13 06:55:47;;;;;;;13.52;2.38;;;13.60;99.90;;;;;;5067256;28;20032;-71
2022/05/13 06:58:14;;;;;;;16.52;2.92;;;13.60;99.90;;;;;;5078013;28;20052;-71
2022/05/13 07:00:40;;;;;;;14.13;3.03;;;13.60;99.90;;;;;;5085115;28;20056;-72
2022/05/13 07:03:10;;;;;;;11.65;2.97;;;13.60;99.90;;;;;;5085548;28;20044;-71
2022/05/13 07:05:35;;;;;;;16.77;2.85;;;13.60;99.90;;;;;;5085600;28;20116;-70
2022/05/13 07:08:01;;;;;;;12.95;2.78;;;13.60;99.90;;;;;;5084280;28;20466;-70
2022/05/13 07:10:27;;;;;;;10.15;2.13;;;13.70;99.90;;;;;;5084529;28;20133;-72
2022/05/13 07:12:53;;;;;;;13.23;2.38;;;13.80;99.90;;;;;;5084724;28;20043;-71
2022/05/13 07:15:20;;;;;;;10.15;2.17;;;13.90;98.80;;;;;;5067165;28;20047;-71
2022/05/13 07:17:47;;;;;;;8.75;2.13;;;14.10;95.70;;;;;;5082768;28;20051;-71
2022/05/13 07:20:14;;;;;;;10.52;2.25;;;14.20;94.20;;;;;;5067813;28;20047;-70
2022/05/13 07:22:40;;;;;;;11.90;2.40;;;14.40;95.00;;;;;;5067030;28;20044;-71
2022/05/13 07:25:06;;;;;;;6.82;2.08;;;14.50;95.10;;;;;;5084218;28;20043;-71
2022/05/13 07:27:32;;;;;;;11.95;2.65;;;14.70;91.40;;;;;;5068323;28;20687;-72
2022/05/13 07:29:58;;;;;;;13.32;2.25;;;14.70;90.60;;;;;;5067102;28;20055;-71
2022/05/13 07:32:23;;;;;;;11.40;2.80;;;15.10;91.30;;;;;;5065676;28;20131;-72
2022/05/13 07:34:49;;;;;;;7.57;1.77;;;15.10;84.70;;;;;;5069656;28;20048;-71
2022/05/13 07:37:15;;;;;;;8.98;2.00;;;15.00;83.60;;;;;;5085993;28;20048;-72
2022/05/13 07:42:25;;;;;;;8.13;1.80;;;14.70;90.90;;;;;;5085375;28;20055;-71
2022/05/13 07:44:51;;;;;;;7.53;1.67;;;15.00;85.20;;;;;;5067057;28;20036;-71
2022/05/13 07:47:18;;;;;;;9.25;2.05;;;15.10;84.80;;;;;;5084538;28;20447;-71
2022/05/13 07:49:44;;;;;;;8.55;1.92;;;15.50;83.20;;;;;;5084546;28;20083;-70
2022/05/13 07:52:10;;;;;;;6.80;1.70;;;15.50;79.40;;;;;;5054932;28;20071;-71
2022/05/13 07:54:36;;;;;;;10.77;1.92;;;15.30;76.60;;;;;;5085024;28;20055;-70
2022/05/13 07:57:03;;;;;;;5.38;1.90;;;15.80;88.10;;;;;;5084677;28;20382;-69
2022/05/13 07:59:33;;;;;;;15.77;2.80;;;16.00;72.50;;;;;;5084517;28;20062;-71
2022/05/13 08:01:59;;;;;;;5.75;2.00;;;15.70;72.60;;;;;;5083864;28;20087;-71
2022/05/13 08:04:25;;;;;;;9.00;1.77;;;15.80;76.00;;;;;;5084420;28;20043;-72
2022/05/13 08:06:51;;;;;;;10.23;2.15;;;15.80;68.80;;;;;;5084242;28;20055;-71
2022/05/13 08:09:18;;;;;;;5.10;1.60;;;15.40;68.60;;;;;;5067280;28;20474;-70
2022/05/13 08:11:44;;;;;;;10.20;2.55;;;15.30;75.70;;;;;;5101956;28;20044;-70
2022/05/13 08:14:11;;;;;;;12.95;2.15;;;15.40;75.00;;;;;;5085940;28;20387;-71
2022/05/13 08:16:37;;;;;;;16.13;2.10;;;15.30;75.40;;;;;;5064802;28;20041;-71
2022/05/13 08:19:04;;;;;;;8.48;1.88;;;15.20;75.50;;;;;;5065474;28;20697;-70
2022/05/13 08:21:30;;;;;;;7.07;1.67;;;15.20;75.70;;;;;;5066679;28;20127;-71
2022/05/13 08:23:56;;;;;;;8.00;2.63;;;15.10;71.90;;;;;;5091388;28;20189;-71
2022/05/13 08:26:21;;;;;;;7.30;1.70;;;14.90;72.30;;;;;;5086709;28;20063;-71
2022/05/13 08:28:47;;;;;;;7.15;1.73;;;14.90;72.50;;;;;;5084150;28;20478;-71
2022/05/13 08:31:16;;;;;;;6.47;1.60;;;14.90;71.80;;;;;;5086851;28;20048;-70
2022/05/13 08:33:43;;;;;;;5.65;1.65;;;15.20;71.80;;;;;;5071624;28;20079;-71
2022/05/13 08:36:12;;;;;;;5.53;1.50;;;15.30;71.60;;;;;;5087654;28;20051;-71
2022/05/13 08:38:39;;;;;;;5.50;1.42;;;15.20;73.20;;;;;;5105702;28;20044;-70
2022/05/13 08:41:17;;;;;;;7.28;1.63;;;15.00;71.20;;;;;;5087165;28;20094;-70
2022/05/13 08:43:47;;;;;;;9.60;1.63;;;14.80;76.50;;;;;;5087779;28;20036;-71
2022/05/13 08:46:16;;;;;;;7.97;1.77;;;14.70;79.10;;;;;;5087594;28;20489;-70
2022/05/13 08:48:53;;;;;;;7.13;1.50;;;14.70;84.00;;;;;;5085900;28;20481;-71
2022/05/13 08:51:57;;;;;;;3.05;1.33;;;15.00;85.00;;;;;;5087678;28;20548;-70
2022/05/13 08:54:30;;;;;;;10.05;1.80;;;15.00;75.10;;;;;;5087699;28;20051;-72
2022/05/13 08:57:01;;;;;;;11.98;2.17;;;14.90;76.10;;;;;;5067093;28;20541;-71
2022/05/13 08:59:28;;;;;;;8.32;1.50;;;14.70;82.30;;;;;;5057697;28;20567;-70
2022/05/13 09:02:16;;;;;;;3.63;1.50;;;14.50;86.00;;;;;;5086742;28;20048;-72
2022/05/13 09:05:10;;;;;;;4.47;1.50;;;14.40;90.30;;;;;;5104668;28;20131;-72
2022/05/13 09:07:37;;;;;;;9.13;1.83;;;14.40;86.50;;;;;;5086351;28;20048;-69
2022/05/13 09:10:06;;;;;;;12.50;1.60;;;14.40;90.00;;;;;;5086474;28;20398;-70
2022/05/13 09:12:47;;;;;;;8.65;2.17;;;14.50;90.70;;;;;;5087826;28;20478;-70
2022/05/13 09:15:25;;;;;;;8.32;1.60;;;14.70;90.50;;;;;;5069570;28;20080;-71
2022/05/13 09:18:08;;;;;;;5.10;1.67;;;15.00;90.00;;;;;;5067322;28;20052;-71
2022/05/13 09:21:02;;;;;;;3.70;0.90;;;15.00;79.20;;;;;;5067181;28;20107;-70
2022/05/13 09:23:29;;;;;;;6.68;1.60;;;15.00;74.90;;;;;;5072989;28;20847;-69
2022/05/13 09:26:18;;;;;;;7.10;1.42;;;15.30;74.40;;;;;;5088048;28;20109;-70
2022/05/13 09:29:07;;;;;;;5.75;1.58;;;16.00;71.60;;;;;;5083950;28;20066;-70
2022/05/13 09:31:37;;;;;;;6.93;1.33;;;16.20;64.20;;;;;;5102614;28;20063;-72
2022/05/13 09:34:27;;;;;;;6.60;1.38;;;16.50;61.30;;;;;;5069458;28;20044;-70
2022/05/13 09:37:01;;;;;;;;;;;16.80;53.60;;;;;;5087108;28;20047;-71
2022/05/13 09:39:34;;;;;;;3.55;1.35;;;16.50;52.60;;;;;;5086589;28;19920;-70
2022/05/13 09:42:21;;;;;;;8.98;1.73;;;16.00;59.10;;;;;;5086279;28;20517;-71
2022/05/13 09:44:47;;;;;;;4.03;1.10;;;15.60;57.60;;;;;;5086756;28;20436;-70
2022/05/13 09:47:26;;;;;;;5.32;1.08;;;15.30;59.00;;;;;;5070337;28;20123;-71
2022/05/13 09:49:52;;;;;;;4.70;1.08;;;15.10;60.20;;;;;;5086715;28;20128;-70
2022/05/13 09:52:34;;;;;;;3.92;1.23;;;15.00;63.00;;;;;;5068153;28;20050;-71
2022/05/13 09:55:39;;;;;;;6.30;1.55;;;15.30;66.40;;;;;;5084671;28;20541;-71
2022/05/13 09:58:19;;;;;;;4.88;1.23;;;15.40;65.60;;;;;;5002553;28;20058;-71
2022/05/13 10:00:50;;;;;;;11.27;1.95;;;15.50;65.60;;;;;;5076981;28;20036;-70
2022/05/13 10:03:26;;;;;;;8.77;1.85;;;15.50;67.00;;;;;;5084967;28;20052;-70
2022/05/13 10:06:10;;;;;;;9.70;2.10;;;15.40;63.80;;;;;;5085590;28;20032;-70
2022/05/13 10:08:49;;;;;;;6.95;1.40;;;15.40;62.90;;;;;;5086418;28;20059;-70
2022/05/13 10:14:22;;;;;;;7.47;1.60;;;15.30;65.80;;;;;;5103144;28;20130;-71
2022/05/13 10:16:51;;;;;;;7.35;1.30;;;15.10;65.50;;;;;;5086145;28;20052;-70
2022/05/13 10:19:49;;;;;;;7.72;1.30;;;15.00;67.30;;;;;;5085600;28;20180;-70
2022/05/13 10:22:29;;;;;;;13.05;2.10;;;15.00;71.50;;;;;;5052959;28;20094;-70
2022/05/13 10:25:03;;;;;;;9.80;1.75;;;15.00;72.80;;;;;;5086203;28;20036;-70
2022/05/13 10:27:57;;;;;;;8.30;1.70;;;15.10;74.30;;;;;;5085086;28;20214;-71
2022/05/13 10:30:32;;;;;;;4.40;1.75;;;15.20;65.60;;;;;;5086617;28;20468;-71
2022/05/13 10:33:06;;;;;;;5.80;1.42;;;15.20;61.60;;;;;;5083772;28;20040;-71
2022/05/13 10:36:10;;;;;;;6.68;1.00;;;15.40;61.50;;;;;;5085400;28;20135;-70
2022/05/13 10:39:11;;;;;;;5.78;1.70;;;15.50;63.40;;;;;;5084847;28;20446;-71
2022/05/13 10:41:47;;;;;;;6.15;1.60;;;15.80;61.90;;;;;;5084385;28;20098;-71
2022/05/13 10:44:45;;;;;;;4.15;1.15;;;16.30;61.00;;;;;;5085424;28;20056;-71
2022/05/13 10:47:24;;;;;;;8.60;1.50;;;17.00;54.00;;;;;;5080076;28;20079;-72
2022/05/13 10:49:50;;;;;;;6.72;1.60;;;17.30;47.90;;;;;;5083175;28;20044;-72
2022/05/13 10:52:16;;;;;;;4.00;1.30;;;17.30;45.80;;;;;;5077299;28;20052;-71
2022/05/13 10:55:14;;;;;;;7.85;1.80;;;17.00;44.90;;;;;;5082406;28;20093;-71
2022/05/13 10:58:27;;;;;;;9.63;1.75;;;16.70;47.30;;;;;;5084343;28;20529;-70
2022/05/13 11:00:56;;;;;;;6.13;1.42;;;16.30;50.30;;;;;;5085157;28;20051;-71
2022/05/13 11:03:46;;;;;;;5.07;1.42;;;16.10;53.40;;;;;;5078730;28;20056;-72
2022/05/13 11:06:23;;;;;;;4.63;1.52;;;16.10;56.60;;;;;;5065342;28;20086;-70
2022/05/13 11:09:15;;;;;;;11.27;2.08;;;16.20;58.20;;;;;;5081635;28;20043;-70
2022/05/13 11:11:45;;;;;;;3.45;1.35;;;16.30;52.90;;;;;;5082535;28;20058;-70
2022/05/13 11:14:38;;;;;;;9.23;1.90;;;16.30;54.50;;;;;;5084054;28;20132;-70
2022/05/13 11:17:14;;;;;;;4.95;1.23;;;16.40;55.00;;;;;;5085454;28;20569;-69
2022/05/13 11:19:48;;;;;;;5.18;1.63;;;16.40;50.10;;;;;;5084784;28;20040;-71
2022/05/13 11:22:42;;;;;;;6.28;1.20;;;16.40;47.80;;;;;;5085264;28;20050;-72
2022/05/13 11:28:20;;;;;;;7.60;1.30;;;16.30;46.80;;;;;;5084129;28;20048;-71
2022/05/13 11:30:55;;;;;;;5.10;1.40;;;16.20;48.10;;;;;;5084527;28;20036;-72
2022/05/13 11:33:40;;;;;;;3.20;1.00;;;16.10;46.30;;;;;;5081717;28;20055;-70
2022/05/13 11:36:20;;;;;;;7.25;1.58;;;16.00;48.50;;;;;;5068071;28;20417;-69
2022/05/13 11:39:12;;;;;;;11.38;2.33;;;16.00;50.50;;;;;;5085339;28;20109;-70
2022/05/13 11:41:56;;;;;;;9.10;1.63;;;16.10;51.40;;;;;;5099141;28;20036;-70
2022/05/13 11:44:46;;;;;;;8.40;1.83;;;16.00;51.00;;;;;;5085014;28;20487;-71
2022/05/13 11:47:42;;;;;;;10.95;1.35;;;15.90;54.60;;;;;;5084542;28;20041;-70
2022/05/13 11:50:11;;;;;;;7.40;1.60;;;15.70;54.90;;;;;;5084818;28;20083;-68
2022/05/13 11:52:43;;;;;;;6.72;1.50;;;15.70;55.20;;;;;;5067450;28;20048;-70
2022/05/13 11:55:22;;;;;;;7.82;1.80;;;15.60;55.30;;;;;;5082147;28;20119;-70
2022/05/13 11:57:53;;;;;;;10.57;1.38;;;15.60;56.80;;;;;;5083875;28;20044;-69
2022/05/13 12:00:23;;;;;;;7.80;1.90;;;15.60;59.40;;;;;;5065838;28;20048;-70
2022/05/13 12:03:03;;;;;;;8.35;1.85;;;15.70;57.90;;;;;;5098438;28;20523;-68
2022/05/13 12:05:32;;;;;;;11.35;2.25;;;15.60;56.50;;;;;;5083249;28;20439;-70
2022/05/13 12:08:01;;;;;;;8.45;1.85;;;15.60;56.50;;;;;;5084505;28;20060;-70
2022/05/13 12:10:52;;;;;;;12.65;2.63;;;15.70;57.40;;;;;;5067018;28;20048;-70
2022/05/13 12:13:48;;;;;;;7.57;2.22;;;15.70;56.80;;;;;;5069062;28;20028;-70
2022/05/13 12:16:37;;;;;;;7.40;1.67;;;15.90;57.30;;;;;;5064490;28;20056;-70
2022/05/13 12:19:34;;;;;;;10.20;1.95;;;16.00;56.60;;;;;;5064526;28;20083;-70
2022/05/13 12:22:30;;;;;;;8.65;1.95;;;16.10;53.90;;;;;;5065690;28;20056;-69
2022/05/13 12:25:35;;;;;;;9.35;2.30;;;16.10;58.30;;;;;;5063869;28;20387;-67
2022/05/13 12:28:23;;;;;;;6.63;2.03;;;16.10;55.20;;;;;;5069559;28;20040;-68
2022/05/13 12:30:51;;;;;;;10.55;1.90;;;16.00;52.30;;;;;;5085339;28;20717;-68
2022/05/13 12:33:20;;;;;;;3.67;1.75;;;16.20;55.50;;;;;;5082837;28;20040;-67
2022/05/13 12:39:19;;;;;;;11.52;1.80;;;16.50;50.60;;;;;;5084878;28;20089;-68
2022/05/13 12:42:15;;;;;;;5.20;1.10;;;16.50;48.90;;;;;;5085016;28;20516;-68
2022/05/13 12:45:01;;;;;;;8.77;2.05;;;16.30;48.40;;;;;;5073275;28;20345;-68
2022/05/13 12:47:32;;;;;;;7.75;2.13;;;16.20;50.00;;;;;;5081145;28;20398;-68
2022/05/13 13:03:41;;;;;;;9.48;2.05;;;16.30;53.70;;;;;;4359628;26;20049;-64
2022/05/13 13:06:20;;;;;;;5.20;1.58;;;16.40;50.10;;;;;;5031835;28;20045;-53
2022/05/13 13:09:32;;;;;;;4.32;1.20;;;16.70;47.80;;;;;;5065211;28;20563;-57
2022/05/13 13:11:59;;;;;;;8.15;2.10;;;16.80;46.00;;;;;;5077091;23;20059;-61
2022/05/13 13:15:03;;;;;;;9.15;1.85;;;16.90;48.90;;;;;;5073951;28;20048;-57
2022/05/13 13:17:58;;;;;;;6.07;1.55;;;16.90;46.00;;;;;;5066628;23;20048;-58
2022/05/13 13:20:27;;;;;;;7.25;2.15;;;16.80;41.70;;;;;;5049653;28;20057;-63
2022/05/13 13:23:12;;;;;;;7.88;2.22;;;16.80;43.90;;;;;;5052253;28;20048;-63
2022/05/13 13:26:13;;;;;;;6.78;1.58;;;17.00;45.10;;;;;;5051670;28;20052;-60
2022/05/13 13:28:45;;;;;;;9.43;2.22;;;17.10;43.00;;;;;;4997468;28;20062;-68
2022/05/13 13:31:48;;;;;;;6.25;1.42;;;17.00;43.70;;;;;;4995822;28;20050;-64
2022/05/13 13:43:02;;;;;;;5.30;1.73;;;16.90;42.80;;;;;;5062103;22;20052;-59
2022/05/13 13:46:22;;;;;;;8.20;1.67;;;16.90;39.20;;;;;;5051579;28;20053;-68
2022/05/13 13:48:54;;;;;;;8.57;1.98;;;16.70;39.60;;;;;;5015206;28;20531;-65
2022/05/13 13:51:25;;;;;;;7.28;1.73;;;16.70;41.80;;;;;;5048019;28;20048;-63
2022/05/13 13:54:00;;;;;;;7.40;2.00;;;16.50;40.10;;;;;;5029956;28;20048;-65
2022/05/13 13:56:32;;;;;;;10.23;2.30;;;16.60;41.70;;;;;;5048771;28;20056;-69